Time;durP1;ratioP1;P1;durP2;ratioP2;P2;SDS_P1;SDS_P2;PMS_P1;PMS_P2;Temp;Humidity;BMP_temperature;BMP_pressure;BME280_temperature;BME280_humidity;BME280_pressure;Samples;Min_cycle;Max_cycle;Signal;HPM_P1;HPM_P2
2023/01/14 00:00:53;;;;;;;5.20;3.40;;;;;;;4.84;100.00;98032.40;106635;1252;71619;-77
2023/01/14 00:03:25;;;;;;;5.90;3.60;;;;;;;4.85;100.00;98036.29;106609;1254;61278;-79
2023/01/14 00:05:56;;;;;;;6.30;3.60;;;;;;;4.88;100.00;98029.91;106437;1259;61103;-77
2023/01/14 00:08:22;;;;;;;6.40;3.60;;;;;;;4.88;100.00;98028.57;106620;1256;74570;-77
2023/01/14 00:10:48;;;;;;;7.80;3.70;;;;;;;4.88;100.00;98030.88;106629;1257;61217;-79
2023/01/14 00:13:15;;;;;;;4.90;2.80;;;;;;;4.89;100.00;98026.30;106593;1255;61678;-78
2023/01/14 00:15:56;;;;;;;5.70;2.90;;;;;;;4.87;100.00;98030.80;106628;1257;60219;-79
2023/01/14 00:18:23;;;;;;;4.30;2.50;;;;;;;4.85;100.00;98033.70;106643;1256;60231;-78
2023/01/14 00:20:56;;;;;;;3.80;2.40;;;;;;;4.85;100.00;98026.55;106629;1254;74523;-79
2023/01/14 00:23:23;;;;;;;7.60;3.30;;;;;;;4.84;100.00;98030.09;106619;1254;70215;-77
2023/01/14 00:25:49;;;;;;;7.30;4.50;;;;;;;4.85;100.00;98038.52;106605;1256;71559;-79
2023/01/14 00:28:16;;;;;;;5.20;3.40;;;;;;;4.84;100.00;98041.58;106567;1255;61119;-77
2023/01/14 00:30:42;;;;;;;5.40;2.50;;;;;;;4.83;100.00;98047.70;106621;1255;59871;-77
2023/01/14 00:33:09;;;;;;;8.10;4.80;;;;;;;4.82;100.00;98045.16;106582;1256;61351;-79
2023/01/14 00:35:35;;;;;;;6.00;2.80;;;;;;;4.81;100.00;98043.37;106554;1256;59881;-77
2023/01/14 00:38:02;;;;;;;8.20;2.60;;;;;;;4.80;100.00;98049.15;106587;1254;61206;-79
2023/01/14 00:40:28;;;;;;;5.40;3.50;;;;;;;4.79;100.00;98054.56;106525;1256;61732;-77
2023/01/14 00:42:54;;;;;;;5.50;3.10;;;;;;;4.76;100.00;98053.75;106685;1254;62230;-79
2023/01/14 00:45:21;;;;;;;4.60;2.90;;;;;;;4.75;100.00;98047.02;106621;1255;61988;-79
2023/01/14 00:47:47;;;;;;;3.70;2.30;;;;;;;4.73;100.00;98048.81;106542;1257;59888;-77
2023/01/14 00:50:14;;;;;;;4.00;2.30;;;;;;;4.71;100.00;98055.21;106583;1255;59233;-79
2023/01/14 00:52:40;;;;;;;4.10;2.00;;;;;;;4.69;100.00;98056.35;106545;1254;62145;-77
2023/01/14 00:55:07;;;;;;;5.00;2.40;;;;;;;4.71;100.00;98052.10;106578;1256;59863;-79
2023/01/14 00:57:33;;;;;;;3.50;2.10;;;;;;;4.69;100.00;98054.25;106677;1256;59874;-77
2023/01/14 00:59:59;;;;;;;4.40;2.20;;;;;;;4.68;100.00;98055.96;106614;1255;61345;-77
2023/01/14 01:02:26;;;;;;;2.10;1.30;;;;;;;4.68;100.00;98052.09;106592;1257;59924;-79
2023/01/14 01:04:53;;;;;;;5.50;2.00;;;;;;;4.69;100.00;98042.55;106603;1254;59904;-77
2023/01/14 01:07:19;;;;;;;3.40;1.80;;;;;;;4.68;100.00;98053.06;106637;1254;61147;-77
2023/01/14 01:09:46;;;;;;;3.20;2.30;;;;;;;4.69;100.00;98058.34;106644;1254;61020;-77
2023/01/14 01:12:13;;;;;;;5.10;2.60;;;;;;;4.68;100.00;98056.71;106671;1255;61330;-77
2023/01/14 01:14:40;;;;;;;5.00;2.50;;;;;;;4.67;100.00;98060.17;106490;1257;60202;-79
2023/01/14 01:17:06;;;;;;;3.50;2.30;;;;;;;4.66;100.00;98065.05;106608;1252;59850;-77
2023/01/14 01:19:32;;;;;;;3.60;2.20;;;;;;;4.66;100.00;98062.48;106625;1257;59905;-78
2023/01/14 01:21:59;;;;;;;2.80;1.90;;;;;;;4.65;100.00;98055.21;106645;1257;61058;-79
2023/01/14 01:24:25;;;;;;;3.10;1.70;;;;;;;4.66;100.00;98058.45;106617;1255;59915;-76
2023/01/14 01:26:51;;;;;;;4.60;1.80;;;;;;;4.66;100.00;98059.25;106660;1257;61420;-78
2023/01/14 01:29:18;;;;;;;2.90;1.90;;;;;;;4.64;100.00;98054.34;106633;1257;61333;-78
2023/01/14 01:31:44;;;;;;;3.10;2.00;;;;;;;4.62;100.00;98060.69;106623;1253;61954;-77
2023/01/14 01:34:10;;;;;;;4.40;1.90;;;;;;;4.59;100.00;98053.15;106567;1257;59991;-79
2023/01/14 01:36:37;;;;;;;3.40;1.90;;;;;;;4.56;100.00;98051.23;106627;1257;61201;-79
2023/01/14 01:39:03;;;;;;;3.20;1.60;;;;;;;4.52;100.00;98050.95;106584;1257;62163;-79
2023/01/14 01:41:30;;;;;;;4.60;2.40;;;;;;;4.50;100.00;98049.29;106633;1253;61729;-79
2023/01/14 01:44:07;;;;;;;5.20;2.80;;;;;;;4.45;100.00;98054.91;106516;1254;59897;-79
2023/01/14 01:46:34;;;;;;;8.50;3.40;;;;;;;4.44;100.00;98062.70;106576;1255;74505;-78
2023/01/14 01:49:03;;;;;;;5.80;3.40;;;;;;;4.42;100.00;98073.22;106505;1254;70884;-77
2023/01/14 01:51:32;;;;;;;6.10;2.50;;;;;;;4.38;100.00;98071.66;106635;1254;70825;-79
2023/01/14 01:53:59;;;;;;;4.40;2.80;;;;;;;4.36;100.00;98065.20;106819;1254;59956;-77
2023/01/14 01:56:28;;;;;;;4.20;2.10;;;;;;;4.34;100.00;98070.81;106672;1256;59785;-80
2023/01/14 01:58:55;;;;;;;6.60;3.00;;;;;;;4.33;100.00;98070.23;106775;1254;74657;-79
2023/01/14 02:01:21;;;;;;;5.60;3.10;;;;;;;4.32;100.00;98075.29;106605;1254;60460;-79
2023/01/14 02:03:48;;;;;;;5.60;2.90;;;;;;;4.32;100.00;98084.52;106560;1254;61013;-79
2023/01/14 02:06:14;;;;;;;3.70;2.10;;;;;;;4.30;100.00;98081.96;106525;1254;61335;-79
2023/01/14 02:08:43;;;;;;;4.40;2.50;;;;;;;4.31;100.00;98088.52;106508;1254;61337;-79
2023/01/14 02:11:20;;;;;;;;;;;;;;;4.29;100.00;98087.77;106512;1254;74242;-79
2023/01/14 02:14:14;;;;;;;3.10;2.00;;;;;;;4.24;100.00;98088.11;106885;1254;70890;-77
2023/01/14 02:16:47;;;;;;;3.60;2.50;;;;;;;4.22;100.00;98093.51;106710;1253;72563;-79
2023/01/14 02:19:15;;;;;;;3.30;2.30;;;;;;;4.21;100.00;98097.78;106624;1254;61186;-79
2023/01/14 02:21:48;;;;;;;5.20;4.00;;;;;;;4.21;100.00;98095.40;106703;1254;59490;-77
2023/01/14 02:24:36;;;;;;;8.70;6.60;;;;;;;4.19;100.00;98092.96;106613;1256;73353;-79
2023/01/14 02:27:22;;;;;;;6.70;4.10;;;;;;;4.17;100.00;98093.44;106555;1255;70473;-79
2023/01/14 02:30:01;;;;;;;5.30;3.20;;;;;;;4.17;100.00;98097.03;106610;1254;72683;-79
2023/01/14 02:32:33;;;;;;;;;;;;;;;4.17;100.00;98101.21;106496;1255;60212;-80
2023/01/14 02:35:25;;;;;;;6.10;2.30;;;;;;;4.15;100.00;98111.48;106641;1254;61007;-77
2023/01/14 02:38:30;;;;;;;4.90;2.90;;;;;;;4.16;100.00;98119.75;106642;1254;74671;-77
2023/01/14 02:41:19;;;;;;;7.70;3.90;;;;;;;4.17;100.00;98124.50;106580;1254;70036;-77
2023/01/14 02:44:07;;;;;;;7.20;3.40;;;;;;;4.17;100.00;98121.38;106623;1254;71474;-77
2023/01/14 02:46:55;;;;;;;6.10;2.90;;;;;;;4.14;100.00;98115.59;106648;1251;61266;-79
2023/01/14 02:49:24;;;;;;;6.60;3.60;;;;;;;4.11;100.00;98107.61;106651;1256;61671;-79
2023/01/14 02:51:50;;;;;;;6.10;2.70;;;;;;;4.09;100.00;98110.38;106700;1254;74504;-77
2023/01/14 02:54:17;;;;;;;5.70;3.30;;;;;;;4.07;100.00;98112.05;106531;1254;59760;-79
2023/01/14 02:56:44;;;;;;;4.60;3.30;;;;;;;4.05;100.00;98111.68;106620;1257;59901;-78
2023/01/14 02:59:41;;;;;;;10.70;3.50;;;;;;;4.04;100.00;98111.69;106640;1252;61180;-77
2023/01/14 03:02:12;;;;;;;5.70;3.50;;;;;;;4.03;100.00;98116.63;106609;1252;60637;-79
2023/01/14 03:05:00;;;;;;;8.50;3.60;;;;;;;4.00;100.00;98115.86;106619;1257;74154;-79
2023/01/14 03:07:29;;;;;;;4.60;2.60;;;;;;;3.97;100.00;98124.45;106614;1254;71144;-78
2023/01/14 03:10:25;;;;;;;3.80;2.70;;;;;;;3.93;100.00;98129.47;106579;1253;72172;-79
2023/01/14 03:13:09;;;;;;;7.80;3.20;;;;;;;3.90;100.00;98137.35;106474;1257;61880;-77
2023/01/14 03:15:45;;;;;;;7.00;3.30;;;;;;;3.90;100.00;98136.28;106662;1255;60215;-77
2023/01/14 03:18:39;;;;;;;6.10;5.50;;;;;;;3.89;100.00;98134.13;106489;1260;73505;-78
2023/01/14 03:21:08;;;;;;;5.90;3.60;;;;;;;3.91;100.00;98132.77;106474;1254;70303;-79
2023/01/14 03:23:46;;;;;;;5.40;3.70;;;;;;;3.94;100.00;98133.78;106530;1256;72604;-79
2023/01/14 03:26:12;;;;;;;4.40;3.10;;;;;;;3.96;100.00;98131.77;106503;1255;59828;-77
2023/01/14 03:28:41;;;;;;;4.70;3.00;;;;;;;3.97;100.00;98136.09;106500;1257;60149;-77
2023/01/14 03:31:09;;;;;;;3.30;2.30;;;;;;;3.97;100.00;98137.69;106570;1254;75727;-79
2023/01/14 03:33:39;;;;;;;9.30;2.50;;;;;;;3.98;100.00;98146.54;106504;1254;71061;-77
2023/01/14 03:36:05;;;;;;;6.10;2.90;;;;;;;3.98;100.00;98148.39;106477;1257;72475;-77
2023/01/14 03:38:35;;;;;;;4.30;2.40;;;;;;;4.00;100.00;98149.87;106461;1254;61297;-79
2023/01/14 03:41:02;;;;;;;5.90;3.60;;;;;;;4.03;100.00;98151.17;106411;1260;60844;-79
2023/01/14 03:43:32;;;;;;;6.30;3.20;;;;;;;4.05;100.00;98156.80;106534;1254;59871;-77
2023/01/14 03:45:58;;;;;;;4.80;3.00;;;;;;;4.07;100.00;98161.19;106471;1254;70991;-79
2023/01/14 03:48:25;;;;;;;5.10;2.50;;;;;;;4.08;100.00;98157.00;106547;1254;61121;-79
2023/01/14 03:51:06;;;;;;;5.90;2.60;;;;;;;4.08;100.00;98159.75;106549;1255;59967;-77
2023/01/14 03:53:43;;;;;;;4.20;2.30;;;;;;;4.09;100.00;98157.96;106755;1254;62001;-80
2023/01/14 03:56:23;;;;;;;4.50;3.10;;;;;;;4.11;100.00;98154.48;106695;1254;74536;-79
2023/01/14 03:58:58;;;;;;;3.30;2.00;;;;;;;4.14;100.00;98161.83;106674;1255;70876;-77
2023/01/14 04:01:44;;;;;;;5.10;3.00;;;;;;;4.19;100.00;98157.95;106613;1252;72567;-77
2023/01/14 04:04:10;;;;;;;4.40;2.50;;;;;;;4.16;100.00;98162.08;106583;1254;62155;-79
2023/01/14 04:06:37;;;;;;;4.10;2.90;;;;;;;4.15;100.00;98170.27;106485;1254;61164;-77
2023/01/14 04:09:05;;;;;;;5.40;2.50;;;;;;;4.15;100.00;98172.20;106498;1254;61282;-77
2023/01/14 04:11:31;;;;;;;3.70;2.90;;;;;;;4.14;100.00;98174.05;106633;1254;69964;-77
2023/01/14 04:16:42;;;;;;;5.00;3.10;;;;;;;4.14;100.00;98171.95;106682;1254;61301;-79
2023/01/14 04:19:09;;;;;;;4.50;2.70;;;;;;;4.15;100.00;98169.45;106603;1254;60945;-77
2023/01/14 04:21:35;;;;;;;7.70;2.50;;;;;;;4.16;100.00;98173.72;106571;1254;62002;-79
2023/01/14 04:24:02;;;;;;;3.90;2.60;;;;;;;4.17;100.00;98172.45;106503;1257;59821;-79
2023/01/14 04:26:28;;;;;;;4.90;2.50;;;;;;;4.20;100.00;98181.98;106615;1254;61127;-79
2023/01/14 04:28:55;;;;;;;5.00;2.70;;;;;;;4.20;100.00;98187.40;106594;1254;61144;-79
2023/01/14 04:31:21;;;;;;;5.20;2.60;;;;;;;4.23;100.00;98185.52;106583;1255;60845;-79
2023/01/14 04:33:48;;;;;;;5.90;4.50;;;;;;;4.23;100.00;98187.66;106611;1254;59988;-77
2023/01/14 04:36:14;;;;;;;5.50;4.00;;;;;;;4.25;100.00;98192.21;106615;1254;59776;-76
2023/01/14 04:38:40;;;;;;;6.70;4.20;;;;;;;4.28;100.00;98194.32;106559;1254;61378;-79
2023/01/14 04:42:25;;;;;;;8.90;5.70;;;;;;;4.30;100.00;98193.50;106538;1255;62145;-79
2023/01/14 04:43:53;;;;;;;9.20;5.50;;;;;;;4.30;100.00;98198.77;106558;1254;60488;-77
2023/01/14 04:46:19;;;;;;;8.70;5.90;;;;;;;4.26;100.00;98198.39;106630;1254;59930;-77
2023/01/14 04:48:46;;;;;;;13.60;8.10;;;;;;;4.23;100.00;98198.77;106632;1254;61434;-77
2023/01/14 04:51:12;;;;;;;9.90;6.00;;;;;;;4.23;100.00;98200.43;106598;1254;61247;-79
2023/01/14 04:53:38;;;;;;;8.70;5.30;;;;;;;4.22;100.00;98204.08;106583;1254;59931;-77
2023/01/14 04:56:05;;;;;;;6.60;4.70;;;;;;;4.23;100.00;98211.27;106526;1254;62017;-77
2023/01/14 04:58:32;;;;;;;6.60;3.90;;;;;;;4.26;100.00;98213.52;106476;1254;60922;-77
2023/01/14 05:00:59;;;;;;;11.20;7.50;;;;;;;4.29;100.00;98215.22;106517;1254;61349;-79
2023/01/14 05:03:26;;;;;;;7.90;5.00;;;;;;;4.32;100.00;98222.68;106524;1253;72513;-79
2023/01/14 05:05:52;;;;;;;10.20;6.60;;;;;;;4.34;100.00;98220.62;106485;1253;61330;-79
2023/01/14 05:08:20;;;;;;;9.80;5.20;;;;;;;4.34;100.00;98221.96;106574;1254;61259;-79
2023/01/14 05:10:49;;;;;;;12.40;7.00;;;;;;;4.34;100.00;98217.55;106513;1253;72651;-77
2023/01/14 05:13:15;;;;;;;7.00;5.00;;;;;;;4.31;100.00;98215.31;106561;1256;71099;-79
2023/01/14 05:15:43;;;;;;;10.30;7.50;;;;;;;4.28;100.00;98216.11;106476;1254;71658;-79
2023/01/14 05:18:11;;;;;;;10.40;7.70;;;;;;;4.22;100.00;98211.91;106574;1257;61220;-77
2023/01/14 05:20:37;;;;;;;13.00;8.90;;;;;;;4.17;100.00;98218.28;106566;1254;60922;-77
2023/01/14 05:23:05;;;;;;;17.60;11.10;;;;;;;4.12;100.00;98218.95;106542;1253;73432;-79
2023/01/14 05:25:32;;;;;;;11.40;6.80;;;;;;;4.10;100.00;98220.21;106552;1254;69774;-77
2023/01/14 05:27:59;;;;;;;14.50;7.80;;;;;;;4.13;100.00;98218.94;106545;1252;72636;-79
2023/01/14 05:30:25;;;;;;;11.50;7.10;;;;;;;4.12;100.00;98224.18;106556;1253;60812;-77
2023/01/14 05:32:52;;;;;;;12.60;9.00;;;;;;;4.12;100.00;98222.45;106507;1252;61331;-77
2023/01/14 05:35:18;;;;;;;15.20;9.40;;;;;;;4.12;100.00;98220.31;106527;1254;72679;-79
2023/01/14 05:37:44;;;;;;;13.00;8.90;;;;;;;4.09;100.00;98224.78;106505;1253;61920;-79
2023/01/14 05:40:11;;;;;;;26.00;13.90;;;;;;;4.04;100.00;98224.08;106561;1256;61947;-79
2023/01/14 05:45:38;;;;;;;11.80;7.10;;;;;;;3.99;100.00;98235.21;106606;1254;60218;-79
2023/01/14 05:48:05;;;;;;;20.30;11.40;;;;;;;4.01;100.00;98236.98;106548;1253;74563;-79
2023/01/14 05:50:31;;;;;;;23.20;15.20;;;;;;;4.00;100.00;98248.56;106577;1254;69824;-77
2023/01/14 05:52:58;;;;;;;23.80;13.10;;;;;;;4.01;100.00;98246.14;106510;1254;71483;-79
2023/01/14 05:55:24;;;;;;;10.80;6.40;;;;;;;4.02;100.00;98247.20;106618;1253;60019;-79
2023/01/14 05:57:50;;;;;;;9.40;7.00;;;;;;;4.07;100.00;98248.70;106579;1254;61295;-77
2023/01/14 06:08:34;;;;;;;8.90;6.00;;;;;;;4.06;100.00;98255.02;106608;1252;61911;-79
2023/01/14 06:11:01;;;;;;;13.60;8.20;;;;;;;4.06;100.00;98256.68;106546;1253;61097;-77
2023/01/14 06:13:27;;;;;;;15.10;9.20;;;;;;;4.05;100.00;98262.93;106629;1254;61113;-78
2023/01/14 06:15:55;;;;;;;10.20;6.90;;;;;;;4.06;100.00;98263.34;106607;1254;60776;-77
2023/01/14 06:18:23;;;;;;;10.00;6.50;;;;;;;4.08;100.00;98266.59;106539;1253;72567;-79
2023/01/14 06:20:50;;;;;;;9.80;5.70;;;;;;;4.08;100.00;98274.48;106614;1256;61912;-78
2023/01/14 06:23:17;;;;;;;7.20;4.40;;;;;;;4.14;100.00;98279.10;106630;1254;61243;-77
2023/01/14 06:25:44;;;;;;;8.30;4.90;;;;;;;4.24;100.00;98273.00;106464;1254;73372;-79
2023/01/14 06:28:11;;;;;;;11.70;6.00;;;;;;;4.32;100.00;98275.54;106488;1259;69912;-79
2023/01/14 06:30:37;;;;;;;11.40;4.50;;;;;;;4.40;100.00;98283.70;106815;1254;60717;-77
2023/01/14 06:33:06;;;;;;;11.00;6.50;;;;;;;4.48;100.00;98285.88;106739;1254;61344;-77
2023/01/14 06:35:33;;;;;;;10.70;7.60;;;;;;;4.53;100.00;98287.68;106641;1254;59743;-79
2023/01/14 06:38:00;;;;;;;9.10;5.70;;;;;;;4.59;100.00;98289.71;106445;1254;73423;-77
2023/01/14 06:40:26;;;;;;;9.80;6.50;;;;;;;4.61;100.00;98291.44;106589;1253;71440;-79
2023/01/14 06:42:53;;;;;;;12.20;8.00;;;;;;;4.63;100.00;98302.39;106621;1254;62004;-79
2023/01/14 06:45:20;;;;;;;13.90;7.70;;;;;;;4.60;100.00;98304.48;106590;1255;60275;-79
2023/01/14 06:47:46;;;;;;;13.30;9.00;;;;;;;4.58;100.00;98305.80;106682;1256;60909;-78
2023/01/14 06:50:14;;;;;;;18.10;9.50;;;;;;;4.55;100.00;98301.92;106635;1254;61348;-77
2023/01/14 06:52:40;;;;;;;29.60;18.70;;;;;;;4.51;100.00;98301.36;106430;1253;71757;-78
2023/01/14 06:55:07;;;;;;;31.90;21.60;;;;;;;4.48;100.00;98303.66;106476;1253;59780;-77
2023/01/14 06:57:33;;;;;;;26.80;18.30;;;;;;;4.45;100.00;98309.49;106581;1254;61244;-77
2023/01/14 06:59:59;;;;;;;29.20;20.10;;;;;;;4.43;100.00;98306.11;106567;1253;61252;-79
2023/01/14 07:02:26;;;;;;;23.40;16.30;;;;;;;4.40;100.00;98310.12;106499;1254;131035;-78
2023/01/14 07:04:52;;;;;;;24.90;20.10;;;;;;;4.36;100.00;98314.80;106627;1255;60859;-79
2023/01/14 07:07:18;;;;;;;15.20;11.30;;;;;;;4.35;100.00;98321.00;106575;1254;59901;-77
2023/01/14 07:09:45;;;;;;;14.10;8.60;;;;;;;4.39;100.00;98314.23;106597;1252;61374;-79
2023/01/14 07:12:11;;;;;;;20.90;14.20;;;;;;;4.41;100.00;98309.39;106555;1253;62187;-78
2023/01/14 07:14:38;;;;;;;21.00;15.30;;;;;;;4.46;100.00;98309.23;106486;1254;60735;-77
2023/01/14 07:17:04;;;;;;;17.90;11.50;;;;;;;4.41;100.00;98310.19;106558;1254;60910;-77
2023/01/14 07:19:30;;;;;;;20.10;13.70;;;;;;;4.39;100.00;98314.55;106633;1254;61341;-79
2023/01/14 07:21:57;;;;;;;28.40;17.60;;;;;;;4.38;100.00;98311.85;106506;1252;61739;-79
2023/01/14 07:24:23;;;;;;;19.00;11.00;;;;;;;4.40;100.00;98313.77;106614;1254;61889;-79
2023/01/14 07:26:49;;;;;;;9.30;6.10;;;;;;;4.43;100.00;98306.17;106555;1254;59991;-79
2023/01/14 07:29:16;;;;;;;14.30;6.30;;;;;;;4.54;100.00;98313.56;106597;1254;61384;-79
2023/01/14 07:31:42;;;;;;;15.30;8.80;;;;;;;4.63;100.00;98317.15;106584;1253;62056;-77
2023/01/14 07:34:08;;;;;;;14.60;7.90;;;;;;;4.74;100.00;98322.88;106555;1253;61286;-77
2023/01/14 07:36:35;;;;;;;16.30;7.50;;;;;;;4.84;100.00;98322.75;106582;1253;59925;-77
2023/01/14 07:39:01;;;;;;;12.60;5.90;;;;;;;4.94;100.00;98320.04;106792;1253;61002;-79
2023/01/14 07:41:28;;;;;;;12.40;6.10;;;;;;;5.02;100.00;98323.46;106824;1254;61225;-79
2023/01/14 07:43:54;;;;;;;11.00;7.40;;;;;;;5.09;100.00;98320.99;106830;1254;60930;-78
2023/01/14 07:46:20;;;;;;;20.40;9.60;;;;;;;5.15;100.00;98321.54;106765;1253;61995;-79
2023/01/14 07:48:47;;;;;;;16.30;9.80;;;;;;;5.16;100.00;98324.36;106806;1253;60713;-77
2023/01/14 07:51:15;;;;;;;17.50;10.10;;;;;;;5.19;100.00;98326.62;106851;1254;59847;-80
2023/01/14 07:53:42;;;;;;;21.10;12.00;;;;;;;5.21;100.00;98322.57;106738;1254;61240;-79
2023/01/14 07:56:08;;;;;;;24.60;14.50;;;;;;;5.19;100.00;98322.48;106583;1253;61205;-77
2023/01/14 07:58:35;;;;;;;29.20;18.80;;;;;;;5.19;100.00;98321.08;106528;1252;62120;-79
2023/01/14 08:01:06;;;;;;;27.70;18.50;;;;;;;5.18;100.00;98322.35;106477;1254;59867;-79
2023/01/14 08:03:32;;;;;;;23.90;15.60;;;;;;;5.18;100.00;98325.73;106759;1254;73866;-79
2023/01/14 08:06:02;;;;;;;26.30;15.60;;;;;;;5.16;100.00;98334.99;106608;1253;61251;-80
2023/01/14 08:08:29;;;;;;;36.20;19.00;;;;;;;5.16;100.00;98333.34;107072;1256;72684;-79
2023/01/14 08:10:59;;;;;;;30.30;17.60;;;;;;;5.18;100.00;98339.54;106579;1254;60396;-79
2023/01/14 08:13:27;;;;;;;33.70;20.60;;;;;;;5.19;100.00;98344.30;106481;1253;61176;-79
2023/01/14 08:15:54;;;;;;;29.60;18.50;;;;;;;5.18;100.00;98347.60;106531;1254;73740;-79
2023/01/14 08:18:21;;;;;;;31.20;18.10;;;;;;;5.16;100.00;98346.77;106592;1253;69935;-79
2023/01/14 08:20:47;;;;;;;26.60;15.50;;;;;;;5.17;100.00;98345.66;106797;1253;59821;-79
2023/01/14 08:23:13;;;;;;;26.30;15.30;;;;;;;5.19;100.00;98347.36;106521;1253;61391;-79
2023/01/14 08:25:40;;;;;;;44.60;22.10;;;;;;;5.23;100.00;98357.17;106474;1252;61349;-79
2023/01/14 08:28:06;;;;;;;45.50;23.10;;;;;;;5.25;100.00;98355.77;106438;1252;62153;-77
2023/01/14 08:30:33;;;;;;;77.40;52.20;;;;;;;5.26;100.00;98360.67;106497;1253;60052;-79
2023/01/14 08:32:59;;;;;;;70.30;46.10;;;;;;;5.25;100.00;98366.63;106410;1253;61886;-78
2023/01/14 08:35:25;;;;;;;78.30;39.30;;;;;;;5.21;100.00;98368.32;106517;1255;59948;-78
2023/01/14 08:37:52;;;;;;;56.70;33.40;;;;;;;5.20;100.00;98371.56;106529;1253;60799;-79
2023/01/14 08:40:18;;;;;;;58.80;30.60;;;;;;;5.17;100.00;98369.46;106565;1254;62084;-79
2023/01/14 08:42:45;;;;;;;46.70;27.40;;;;;;;5.20;100.00;98372.02;106562;1254;59737;-77
2023/01/14 08:45:12;;;;;;;45.40;29.20;;;;;;;5.18;100.00;98369.91;106639;1254;59947;-79
2023/01/14 08:47:38;;;;;;;40.60;23.30;;;;;;;5.20;100.00;98364.76;106406;1254;61333;-77
2023/01/14 08:50:05;;;;;;;40.20;23.10;;;;;;;5.26;100.00;98360.95;106583;1253;61925;-79
2023/01/14 08:52:31;;;;;;;38.00;21.40;;;;;;;5.36;100.00;98369.82;106593;1254;60354;-77
2023/01/14 08:54:58;;;;;;;47.90;25.40;;;;;;;5.45;100.00;98370.74;106501;1254;61307;-77
2023/01/14 08:57:24;;;;;;;45.00;22.90;;;;;;;5.49;100.00;98374.86;106454;1254;61432;-79
2023/01/14 08:59:50;;;;;;;39.40;27.10;;;;;;;5.52;100.00;98382.77;106563;1254;60340;-77
2023/01/14 09:02:17;;;;;;;60.10;42.70;;;;;;;5.59;100.00;98389.95;106657;1252;59851;-79
2023/01/14 09:04:43;;;;;;;49.40;31.00;;;;;;;5.66;100.00;98392.19;106645;1256;59907;-79
2023/01/14 09:18:10;;;;;;;17.00;9.30;;;;;;;6.04;100.00;98379.66;106553;1253;74618;-79
2023/01/14 09:20:38;;;;;;;14.30;7.20;;;;;;;6.14;100.00;98380.80;106674;1254;62059;-79
2023/01/14 09:23:06;;;;;;;19.10;9.10;;;;;;;6.27;100.00;98375.15;106760;1254;72565;-79
2023/01/14 09:25:32;;;;;;;13.50;7.20;;;;;;;6.46;100.00;98371.59;106599;1254;60950;-77
2023/01/14 09:27:59;;;;;;;14.30;7.90;;;;;;;6.63;100.00;98374.23;106592;1253;61218;-77
2023/01/14 09:30:26;;;;;;;18.00;9.40;;;;;;;6.79;100.00;98374.93;106591;1253;61254;-79
2023/01/14 09:32:53;;;;;;;7.50;4.50;;;;;;;7.02;99.87;98376.50;106581;1253;71080;-77
2023/01/14 09:35:19;;;;;;;16.60;7.50;;;;;;;7.11;98.75;98374.31;106605;1253;71474;-78
2023/01/14 09:37:46;;;;;;;10.00;5.80;;;;;;;7.16;98.64;98368.44;106555;1254;61730;-79
2023/01/14 09:40:13;;;;;;;9.40;5.20;;;;;;;7.16;98.57;98373.61;106588;1253;59903;-79
2023/01/14 09:42:45;;;;;;;9.20;4.60;;;;;;;7.14;98.00;98374.35;106489;1252;74561;-79
2023/01/14 09:45:18;;;;;;;7.50;4.70;;;;;;;7.18;98.54;98371.50;106468;1253;70951;-79
2023/01/14 09:47:44;;;;;;;15.00;6.70;;;;;;;7.29;98.41;98372.44;106585;1253;71969;-79
2023/01/14 09:50:14;;;;;;;18.60;8.30;;;;;;;7.42;98.42;98369.39;106477;1254;59770;-79
2023/01/14 09:53:20;;;;;;;9.20;4.30;;;;;;;7.56;97.91;98368.36;106720;1252;61020;-79
2023/01/14 09:55:55;;;;;;;7.30;4.40;;;;;;;7.70;98.01;98367.29;106455;1256;74535;-79
2023/01/14 09:58:31;;;;;;;8.70;3.80;;;;;;;7.83;97.02;98366.36;106667;1254;71054;-81
2023/01/14 10:01:12;;;;;;;8.90;3.90;;;;;;;7.88;96.55;98364.02;106624;1254;71376;-79
2023/01/14 10:03:53;;;;;;;8.00;5.20;;;;;;;7.97;97.04;98361.59;106504;1252;61027;-77
2023/01/14 10:06:20;;;;;;;6.50;3.80;;;;;;;7.99;96.13;98364.04;106629;1254;61227;-78
2023/01/14 10:08:52;;;;;;;6.30;4.00;;;;;;;8.02;95.94;98358.83;106604;1253;60607;-80
2023/01/14 10:11:18;;;;;;;6.30;3.80;;;;;;;8.08;96.46;98356.79;106598;1252;72219;-78
2023/01/14 10:14:10;;;;;;;15.60;7.80;;;;;;;8.14;96.11;98349.63;106565;1254;61989;-77
2023/01/14 10:16:41;;;;;;;25.60;9.70;;;;;;;8.20;95.52;98345.67;106723;1253;59765;-77
2023/01/14 10:19:21;;;;;;;19.60;9.30;;;;;;;8.27;95.39;98348.43;106559;1254;61365;-79
2023/01/14 10:21:49;;;;;;;25.10;11.50;;;;;;;8.37;95.46;98344.07;106620;1254;74983;-78
2023/01/14 10:24:17;;;;;;;22.80;11.00;;;;;;;8.44;94.10;98351.69;106523;1254;70189;-78
2023/01/14 10:26:45;;;;;;;15.60;7.80;;;;;;;8.50;93.14;98348.34;106690;1252;72582;-78
2023/01/14 10:29:16;;;;;;;16.30;6.50;;;;;;;8.50;92.70;98346.45;106678;1253;59846;-79
2023/01/14 10:32:12;;;;;;;12.20;6.00;;;;;;;8.51;92.25;98346.39;106650;1253;61579;-79
2023/01/14 10:34:42;;;;;;;13.00;5.10;;;;;;;8.57;92.05;98352.17;106590;1254;74532;-79
2023/01/14 10:37:08;;;;;;;8.90;4.40;;;;;;;8.54;90.10;98349.23;106523;1254;71173;-78
2023/01/14 10:39:35;;;;;;;29.50;7.80;;;;;;;8.52;90.98;98347.54;106516;1254;59904;-77
2023/01/14 10:42:03;;;;;;;7.40;3.80;;;;;;;8.53;91.19;98343.97;106657;1254;61230;-78
2023/01/14 10:44:37;;;;;;;6.50;4.40;;;;;;;8.53;90.35;98341.87;106652;1252;61237;-79
2023/01/14 10:47:08;;;;;;;8.60;5.30;;;;;;;8.48;90.61;98334.82;106549;1252;74509;-79
2023/01/14 10:49:44;;;;;;;9.10;4.30;;;;;;;8.36;90.68;98331.69;106695;1254;69786;-79
2023/01/14 10:52:19;;;;;;;7.90;3.40;;;;;;;8.27;90.80;98330.08;106760;1254;71497;-78
2023/01/14 10:55:02;;;;;;;9.00;3.10;;;;;;;8.15;90.81;98323.21;106641;1253;61095;-77
2023/01/14 10:57:30;;;;;;;6.00;3.30;;;;;;;8.03;90.82;98324.35;106539;1257;61996;-79
2023/01/14 10:59:56;;;;;;;8.60;3.70;;;;;;;7.95;91.77;98320.77;106637;1253;74516;-79
2023/01/14 11:02:38;;;;;;;7.20;4.30;;;;;;;7.92;91.29;98318.27;106453;1253;61250;-77
2023/01/14 11:05:20;;;;;;;6.80;3.30;;;;;;;7.91;91.75;98319.70;106636;1253;71614;-80
2023/01/14 11:07:47;;;;;;;7.00;3.20;;;;;;;7.95;91.08;98319.64;106606;1254;61719;-77
2023/01/14 11:10:24;;;;;;;8.00;3.30;;;;;;;8.05;90.86;98324.27;106559;1254;61971;-79
2023/01/14 11:12:51;;;;;;;6.80;3.40;;;;;;;8.13;91.00;98324.13;106511;1252;74544;-78
2023/01/14 11:15:37;;;;;;;5.70;3.80;;;;;;;8.19;90.81;98322.61;106592;1252;71072;-78
2023/01/14 11:18:20;;;;;;;11.90;5.70;;;;;;;8.25;90.48;98323.73;106664;1252;71980;-78
2023/01/14 11:20:51;;;;;;;9.40;5.00;;;;;;;8.21;88.08;98322.41;106626;1253;61477;-78
2023/01/14 11:23:27;;;;;;;7.80;4.50;;;;;;;8.16;88.89;98327.12;106502;1254;60251;-79
2023/01/14 11:25:54;;;;;;;7.60;3.60;;;;;;;8.15;88.97;98325.94;106578;1253;74631;-79
2023/01/14 11:28:20;;;;;;;16.10;3.90;;;;;;;8.17;89.49;98331.45;107121;1254;71065;-77
2023/01/14 11:30:48;;;;;;;6.10;2.80;;;;;;;8.18;87.63;98322.39;107146;1253;61998;-79
2023/01/14 11:33:22;;;;;;;7.30;3.40;;;;;;;8.15;88.14;98321.66;107003;1254;59795;-79
2023/01/14 11:35:51;;;;;;;15.20;4.00;;;;;;;8.20;87.84;98317.54;107002;1253;60282;-79
2023/01/14 11:38:21;;;;;;;8.20;3.80;;;;;;;8.25;87.19;98315.97;107132;1253;74853;-79
2023/01/14 11:43:56;;;;;;;5.90;2.70;;;;;;;8.25;86.79;98314.23;105785;1263;72595;-77
2023/01/14 11:46:23;;;;;;;6.90;2.30;;;;;;;8.22;86.96;98314.80;106362;1253;59868;-77
2023/01/14 11:49:21;;;;;;;5.90;3.80;;;;;;;8.16;86.15;98311.78;106602;1256;62098;-78
2023/01/14 11:52:00;;;;;;;9.70;5.10;;;;;;;8.13;86.31;98313.77;106676;1254;74545;-79
2023/01/14 11:54:36;;;;;;;6.40;3.90;;;;;;;8.08;86.42;98311.34;106647;1254;69408;-77
2023/01/14 11:57:04;;;;;;;14.10;5.80;;;;;;;8.02;86.44;98311.06;106663;1253;71498;-78
2023/01/14 11:59:32;;;;;;;18.10;8.70;;;;;;;8.00;86.13;98304.99;106662;1254;61348;-79
2023/01/14 12:02:22;;;;;;;25.30;11.30;;;;;;;7.96;85.18;98297.24;106862;1253;61212;-80